createdAt,value
2018-01-06T00:01:05.997Z,61.30
2018-01-06T00:03:34.691Z,61.50
2018-01-06T00:08:33.166Z,61.60
2018-01-06T00:11:02.218Z,61.60
2018-01-06T00:13:31.231Z,61.90
2018-01-06T00:16:00.336Z,61.60
2018-01-06T00:18:29.333Z,61.30
2018-01-06T00:20:59.244Z,61.60
2018-01-06T00:23:28.890Z,61.50
2018-01-06T00:25:57.526Z,61.70
2018-01-06T00:28:26.331Z,61.50
2018-01-06T00:30:55.378Z,61.50
2018-01-06T00:33:24.785Z,61.50
2018-01-06T00:35:53.851Z,61.40
2018-01-06T00:38:22.854Z,61.60
2018-01-06T00:40:52.636Z,61.60
2018-01-06T00:43:21.413Z,61.80
2018-01-06T00:45:50.861Z,61.90
2018-01-06T00:48:20.355Z,62.90
2018-01-06T00:50:49.822Z,62.10
2018-01-06T00:53:18.455Z,62.40
2018-01-06T00:55:47.845Z,62.70
2018-01-06T00:58:16.973Z,62.60
2018-01-06T01:03:15.619Z,63.20
2018-01-06T01:05:44.262Z,63.20
2018-01-06T01:08:12.927Z,63.00
2018-01-06T01:10:41.583Z,63.00
2018-01-06T01:13:10.193Z,63.40
2018-01-06T01:15:38.791Z,63.30
2018-01-06T01:18:07.390Z,63.50
2018-01-06T01:20:36.835Z,62.60
2018-01-06T01:23:05.469Z,61.40
2018-01-06T01:25:34.488Z,61.80
2018-01-06T01:28:03.190Z,62.20
2018-01-06T01:30:32.625Z,62.40
2018-01-06T01:33:01.284Z,62.80
2018-01-06T01:35:31.071Z,63.60
2018-01-06T01:37:59.660Z,63.40
2018-01-06T01:40:28.572Z,63.30
2018-01-06T01:42:57.341Z,63.40
2018-01-06T01:45:27.276Z,63.60
2018-01-06T01:47:56.781Z,63.60
2018-01-06T01:50:26.032Z,63.50
2018-01-06T01:52:54.666Z,63.50
2018-01-06T01:55:23.262Z,63.60
2018-01-06T01:57:51.843Z,63.60
2018-01-06T02:00:20.551Z,63.70
2018-01-06T02:02:49.624Z,63.80
2018-01-06T02:05:18.235Z,64.10
2018-01-06T02:07:47.264Z,64.20
2018-01-06T02:10:15.874Z,64.20
2018-01-06T02:12:44.504Z,64.50
2018-01-06T02:15:13.968Z,65.40
2018-01-06T02:17:42.676Z,65.40
2018-01-06T02:20:11.298Z,65.40
2018-01-06T02:22:40.433Z,65.20
2018-01-06T02:25:09.945Z,65.10
2018-01-06T02:27:39.186Z,65.10
2018-01-06T02:30:08.336Z,65.40
2018-01-06T02:32:37.719Z,65.70
2018-01-06T02:35:06.357Z,64.80
2018-01-06T02:37:35.829Z,64.50
2018-01-06T02:40:05.191Z,63.80
2018-01-06T02:42:33.890Z,63.50
2018-01-06T02:45:03.548Z,63.90
2018-01-06T02:47:32.237Z,63.30
2018-01-06T02:50:02.125Z,64.80
2018-01-06T02:52:31.183Z,63.80
2018-01-06T02:54:59.827Z,64.20
2018-01-06T02:57:28.598Z,64.20
2018-01-06T02:59:57.239Z,64.50
2018-01-06T03:02:25.836Z,64.80
2018-01-06T03:04:56.028Z,64.80
2018-01-06T03:07:24.618Z,65.50
2018-01-06T03:09:53.399Z,65.60
2018-01-06T03:12:22.148Z,66.10
2018-01-06T03:14:50.756Z,66.30
2018-01-06T03:17:19.326Z,66.50
2018-01-06T03:19:47.999Z,66.40
2018-01-06T03:22:16.636Z,66.70
2018-01-06T03:24:45.307Z,67.10
2018-01-06T03:27:13.997Z,67.00
2018-01-06T03:29:42.632Z,67.10
2018-01-06T03:32:12.603Z,67.70
2018-01-06T03:34:41.365Z,67.40
2018-01-06T03:37:10.158Z,67.60
2018-01-06T03:39:39.982Z,67.60
2018-01-06T03:42:08.666Z,67.70
2018-01-06T03:44:37.525Z,67.60
2018-01-06T03:47:06.374Z,67.60
2018-01-06T03:49:37.543Z,67.90
2018-01-06T03:52:07.196Z,67.80
2018-01-06T03:54:36.776Z,68.20
2018-01-06T03:57:05.518Z,67.70
2018-01-06T03:59:34.162Z,67.80
2018-01-06T04:02:04.429Z,67.80
2018-01-06T04:04:35.078Z,67.70
2018-01-06T04:07:03.877Z,67.90
2018-01-06T04:09:33.150Z,67.80
2018-01-06T04:12:01.811Z,67.90
2018-01-06T04:14:30.593Z,67.20
2018-01-06T04:16:59.878Z,66.50
2018-01-06T04:19:29.545Z,67.30
2018-01-06T04:21:58.495Z,66.90
2018-01-06T04:24:27.308Z,66.90
2018-01-06T04:26:55.985Z,66.70
2018-01-06T04:29:24.798Z,67.10
2018-01-06T04:34:24.466Z,67.10
2018-01-06T04:36:53.123Z,67.10
2018-01-06T04:39:21.904Z,67.10
2018-01-06T04:41:51.486Z,67.10
2018-01-06T04:44:22.286Z,67.40
2018-01-06T04:46:50.987Z,66.60
2018-01-06T04:49:20.111Z,64.40
2018-01-06T04:51:49.557Z,66.40
2018-01-06T04:54:18.392Z,66.60
2018-01-06T04:56:47.043Z,66.50
2018-01-06T04:59:15.844Z,66.80
2018-01-06T05:01:44.883Z,66.80
2018-01-06T05:04:14.506Z,66.80
2018-01-06T05:06:43.221Z,67.10
2018-01-06T05:09:11.908Z,67.30
2018-01-06T05:11:41.220Z,67.30
2018-01-06T05:14:10.887Z,68.00
2018-01-06T05:16:39.520Z,67.70
2018-01-06T05:19:09.619Z,68.60
2018-01-06T05:21:38.560Z,68.20
2018-01-06T05:24:07.350Z,69.30
2018-01-06T05:26:36.930Z,70.70
2018-01-06T05:29:05.696Z,71.00
2018-01-06T05:31:34.375Z,71.70
2018-01-06T05:34:03.448Z,71.30
2018-01-06T05:36:33.097Z,71.90
2018-01-06T05:39:02.020Z,71.70
2018-01-06T05:41:30.969Z,71.00
2018-01-06T05:43:59.657Z,70.80
2018-01-06T05:46:29.736Z,71.20
2018-01-06T05:48:58.470Z,71.00
2018-01-06T05:51:27.322Z,71.50
2018-01-06T05:53:56.148Z,71.70
2018-01-06T05:56:24.989Z,72.60
2018-01-06T05:58:54.326Z,72.90
2018-01-06T06:01:23.398Z,72.50
2018-01-06T06:03:52.101Z,72.50
2018-01-06T06:06:20.786Z,72.00
2018-01-06T06:08:49.400Z,72.20
2018-01-06T06:11:18.002Z,72.70
2018-01-06T06:13:46.982Z,73.60
2018-01-06T06:16:15.741Z,74.20
2018-01-06T06:18:44.630Z,74.90
2018-01-06T06:21:14.152Z,76.10
2018-01-06T06:23:43.860Z,76.60
2018-01-06T06:26:12.610Z,76.70
2018-01-06T06:28:41.263Z,76.60
2018-01-06T06:31:10.269Z,77.10
2018-01-06T06:33:38.890Z,77.40
2018-01-06T06:36:08.613Z,77.70
2018-01-06T06:38:37.318Z,77.50
2018-01-06T06:41:05.934Z,77.70
2018-01-06T06:43:34.661Z,77.80
2018-01-06T06:46:03.277Z,77.30
2018-01-06T06:48:32.144Z,77.10
2018-01-06T06:51:01.249Z,77.30
2018-01-06T06:53:29.840Z,77.10
2018-01-06T06:55:58.944Z,77.20
2018-01-06T06:58:27.829Z,77.30
2018-01-06T07:00:56.754Z,77.10
2018-01-06T07:03:26.272Z,76.90
2018-01-06T07:05:55.673Z,77.90
2018-01-06T07:08:24.361Z,77.60
2018-01-06T07:10:53.828Z,77.60
2018-01-06T07:13:22.450Z,77.60
2018-01-06T07:15:51.118Z,77.60
2018-01-06T07:18:21.412Z,77.60
2018-01-06T07:20:50.047Z,77.90
2018-01-06T07:23:18.666Z,78.30
2018-01-06T07:25:47.314Z,78.30
2018-01-06T07:28:16.771Z,78.70
2018-01-06T07:30:45.801Z,78.20
2018-01-06T07:33:15.174Z,78.30
2018-01-06T07:35:44.406Z,78.50
2018-01-06T07:38:13.006Z,78.30
2018-01-06T07:40:42.447Z,78.30
2018-01-06T07:43:11.066Z,78.20
2018-01-06T07:45:39.822Z,78.40
2018-01-06T07:48:08.415Z,78.50
2018-01-06T07:50:37.811Z,78.60
2018-01-06T07:53:06.448Z,78.90
2018-01-06T07:55:35.115Z,78.80
2018-01-06T07:58:05.252Z,78.90
2018-01-06T08:03:04.549Z,78.60
2018-01-06T08:05:33.546Z,78.60
2018-01-06T08:08:02.106Z,78.80
2018-01-06T08:10:31.091Z,79.10
2018-01-06T08:13:00.112Z,78.90
2018-01-06T08:15:28.718Z,79.10
2018-01-06T08:17:57.321Z,78.90
2018-01-06T08:20:26.358Z,78.50
2018-01-06T08:22:55.848Z,79.70
2018-01-06T08:25:24.896Z,78.90
2018-01-06T08:27:53.540Z,79.00
2018-01-06T08:30:22.186Z,79.00
2018-01-06T08:32:51.123Z,78.90
2018-01-06T08:35:20.033Z,79.00
2018-01-06T08:37:49.507Z,78.60
2018-01-06T08:40:18.983Z,77.50
2018-01-06T08:42:48.042Z,77.10
2018-01-06T08:45:16.753Z,76.90
2018-01-06T08:47:46.193Z,76.60
2018-01-06T08:50:14.822Z,76.70
2018-01-06T08:52:43.629Z,77.10
2018-01-06T08:55:13.007Z,77.80
2018-01-06T08:57:41.684Z,77.20
2018-01-06T09:00:10.440Z,77.30
2018-01-06T09:02:39.125Z,77.20
2018-01-06T09:05:07.915Z,76.90
2018-01-06T09:07:36.626Z,77.00
2018-01-06T09:10:05.664Z,77.10
2018-01-06T09:12:35.245Z,77.00
2018-01-06T09:15:04.625Z,77.50
2018-01-06T09:17:33.501Z,77.30
2018-01-06T09:20:02.344Z,77.30
2018-01-06T09:22:30.918Z,77.10
2018-01-06T09:24:59.978Z,76.90
2018-01-06T09:27:28.998Z,76.60
2018-01-06T09:29:59.086Z,76.40
2018-01-06T09:32:27.748Z,76.00
2018-01-06T09:34:56.385Z,76.30
2018-01-06T09:37:25.391Z,75.90
2018-01-06T09:39:54.036Z,76.20
2018-01-06T09:42:23.444Z,76.50
2018-01-06T09:44:52.159Z,76.60
2018-01-06T09:47:21.161Z,76.50
2018-01-06T09:49:50.590Z,76.60
2018-01-06T09:52:19.251Z,76.70
2018-01-06T09:54:47.962Z,76.60
2018-01-06T10:04:03.208Z,76.80
2018-01-06T10:06:31.910Z,76.50
2018-01-06T10:09:01.363Z,77.20
2018-01-06T10:14:00.426Z,76.70
2018-01-06T10:16:29.070Z,77.30
2018-01-06T10:18:58.462Z,77.20
2018-01-06T10:21:27.070Z,76.80
2018-01-06T10:23:55.688Z,76.40
2018-01-06T10:26:24.744Z,75.90
2018-01-06T10:28:53.853Z,76.20
2018-01-06T10:31:22.450Z,76.40
2018-01-06T10:33:51.511Z,76.60
2018-01-06T10:36:20.171Z,76.30
2018-01-06T10:38:50.045Z,75.30
2018-01-06T10:41:18.655Z,75.40
2018-01-06T10:43:47.283Z,74.40
2018-01-06T10:46:17.406Z,75.10
2018-01-06T10:48:46.772Z,74.80
2018-01-06T10:51:15.337Z,74.80
2018-01-06T10:53:43.886Z,74.60
2018-01-06T10:56:12.944Z,74.80
2018-01-06T10:58:42.035Z,74.80
2018-01-06T11:01:16.567Z,74.70
2018-01-06T11:03:45.944Z,74.70
2018-01-06T11:06:14.601Z,75.20
2018-01-06T11:11:13.151Z,74.80
2018-01-06T11:13:42.182Z,74.90
2018-01-06T11:16:11.324Z,74.30
2018-01-06T11:18:40.780Z,75.20
2018-01-06T11:21:09.825Z,75.40
2018-01-06T11:26:08.780Z,74.50
2018-01-06T11:28:37.798Z,74.50
2018-01-06T11:31:06.433Z,74.20
2018-01-06T11:33:35.979Z,74.50
2018-01-06T11:36:05.326Z,74.70
2018-01-06T11:38:34.331Z,74.40
2018-01-06T11:41:03.710Z,74.80
2018-01-06T11:43:32.470Z,74.80
2018-01-06T11:46:01.121Z,74.40
2018-01-06T11:48:30.659Z,73.80
2018-01-06T11:50:59.902Z,73.90
2018-01-06T11:53:37.856Z,74.60
2018-01-06T11:56:07.379Z,74.80
2018-01-06T11:58:36.260Z,73.60
2018-01-06T12:01:05.614Z,74.00
2018-01-06T12:03:34.955Z,75.20
2018-01-06T12:06:05.389Z,74.80
2018-01-06T12:08:34.003Z,74.40
2018-01-06T12:11:02.762Z,74.10
2018-01-06T12:13:31.855Z,74.00
2018-01-06T12:16:00.950Z,74.70
2018-01-06T12:18:29.566Z,76.70
2018-01-06T12:20:58.576Z,77.50
2018-01-06T12:23:28.034Z,78.30
2018-01-06T12:25:57.498Z,78.30
2018-01-06T12:28:26.644Z,78.90
2018-01-06T12:33:26.262Z,79.20
2018-01-06T12:35:55.716Z,79.30
2018-01-06T12:38:24.399Z,79.70
2018-01-06T12:40:53.921Z,79.40
2018-01-06T12:43:23.048Z,79.20
2018-01-06T12:45:52.969Z,79.40
2018-01-06T12:50:51.893Z,79.00
2018-01-06T12:53:20.623Z,79.20
2018-01-06T12:55:49.310Z,79.50
2018-01-06T12:58:17.940Z,79.40
2018-01-06T13:00:47.037Z,78.90
2018-01-06T13:03:16.034Z,78.00
2018-01-06T13:05:45.540Z,78.60
2018-01-06T13:11:07.440Z,79.20
2018-01-06T13:13:37.335Z,79.30
2018-01-06T13:16:06.219Z,79.40
2018-01-06T13:21:05.443Z,79.70
2018-01-06T13:23:34.342Z,79.90
2018-01-06T13:26:04.056Z,79.90
2018-01-06T13:28:33.949Z,80.00
2018-01-06T13:31:03.532Z,80.60
2018-01-06T13:33:32.150Z,81.20
2018-01-06T13:36:01.365Z,81.50
2018-01-06T13:38:31.360Z,82.20
2018-01-06T13:41:00.998Z,82.50
2018-01-06T13:43:29.962Z,82.50
2018-01-06T13:45:59.161Z,82.90
2018-01-06T13:48:28.791Z,83.40
2018-01-06T13:50:57.797Z,83.70
2018-01-06T13:53:27.720Z,84.20
2018-01-06T13:55:56.747Z,84.80
2018-01-06T13:58:26.376Z,85.70
2018-01-06T14:00:56.306Z,86.20
2018-01-06T14:05:55.217Z,86.90
2018-01-06T14:08:24.000Z,87.30
2018-01-06T14:10:53.392Z,87.60
2018-01-06T14:13:23.210Z,87.50
2018-01-06T14:15:51.832Z,87.60
2018-01-06T14:18:21.397Z,87.50
2018-01-06T14:20:50.083Z,87.60
2018-01-06T14:23:19.146Z,87.50
2018-01-06T14:28:46.416Z,87.00
2018-01-06T14:33:46.389Z,87.60
2018-01-06T14:36:15.311Z,87.20
2018-01-06T14:38:44.014Z,87.10
2018-01-06T14:41:12.963Z,87.10
2018-01-06T14:43:41.945Z,86.90
2018-01-06T14:46:11.707Z,87.90
2018-01-06T14:48:40.510Z,86.80
2018-01-06T14:51:09.439Z,86.90
2018-01-06T14:53:38.536Z,87.00
2018-01-06T14:56:07.224Z,86.60
2018-01-06T14:58:37.137Z,86.50
2018-01-06T15:01:05.988Z,86.40
2018-01-06T15:03:34.714Z,86.10
2018-01-06T15:06:04.701Z,86.80
2018-01-06T15:11:30.582Z,86.70
2018-01-06T15:13:59.407Z,86.60
2018-01-06T15:16:28.917Z,86.40
2018-01-06T15:18:58.679Z,86.40
2018-01-06T15:21:28.140Z,86.50
2018-01-06T15:23:56.872Z,86.60
2018-01-06T15:26:25.760Z,86.90
2018-01-06T15:28:55.265Z,87.00
2018-01-06T15:40:30.886Z,88.50
2018-01-06T15:45:30.023Z,89.60
2018-01-06T15:48:00.496Z,90.30
2018-01-06T15:50:31.828Z,90.30
2018-01-06T15:55:32.109Z,90.70
2018-01-06T15:58:02.029Z,90.80
2018-01-06T16:00:31.244Z,91.00
2018-01-06T16:03:01.651Z,91.10
2018-01-06T16:08:05.984Z,91.30
2018-01-06T16:10:34.838Z,91.40
2018-01-06T16:13:03.731Z,91.60
2018-01-06T16:15:32.862Z,91.80
2018-01-06T16:18:03.042Z,91.90
2018-01-06T16:20:33.256Z,92.00
2018-01-06T16:23:01.944Z,92.10
2018-01-06T16:25:31.857Z,92.10
2018-01-06T16:28:01.316Z,92.10
2018-01-06T16:30:30.202Z,92.30
2018-01-06T16:32:59.141Z,92.50
2018-01-06T16:35:28.719Z,92.60
2018-01-06T16:37:57.519Z,92.80
2018-01-06T16:40:26.233Z,92.80
2018-01-06T16:42:55.534Z,92.90
2018-01-06T16:45:24.927Z,93.10
2018-01-06T16:47:54.163Z,93.30
2018-01-06T16:50:23.434Z,93.40
2018-01-06T16:52:52.250Z,93.40
2018-01-06T16:55:21.398Z,93.60
2018-01-06T16:57:51.133Z,93.70
2018-01-06T17:00:20.574Z,93.70
2018-01-06T17:02:49.818Z,93.80
2018-01-06T17:05:18.962Z,94.00
2018-01-06T17:07:48.365Z,94.10
2018-01-06T17:10:16.949Z,94.30
2018-01-06T17:12:49.348Z,94.40
2018-01-06T17:15:18.323Z,94.60
2018-01-06T17:17:48.965Z,94.60
2018-01-06T17:20:18.306Z,94.70
2018-01-06T17:22:47.444Z,94.70
2018-01-06T17:25:16.260Z,94.90
2018-01-06T17:27:45.535Z,95.00
2018-01-06T17:30:14.772Z,94.90
2018-01-06T17:35:15.723Z,95.30
2018-01-06T17:37:44.764Z,95.00
2018-01-06T17:40:14.240Z,95.20
2018-01-06T17:42:43.462Z,95.20
2018-01-06T17:45:12.346Z,95.40
2018-01-06T17:47:41.976Z,95.50
2018-01-06T17:50:11.512Z,95.50
2018-01-06T17:52:41.148Z,95.60
2018-01-06T17:55:11.273Z,95.80
2018-01-06T18:00:10.248Z,95.80
2018-01-06T18:02:39.906Z,95.90
2018-01-06T18:05:09.841Z,95.90
2018-01-06T18:07:38.510Z,95.70
2018-01-06T18:10:07.186Z,95.50
2018-01-06T18:12:36.222Z,95.10
2018-01-06T18:15:04.872Z,95.10
2018-01-06T18:17:34.261Z,95.00
2018-01-06T18:20:02.916Z,94.70
2018-01-06T18:22:32.111Z,94.40
2018-01-06T18:25:00.750Z,94.30
2018-01-06T18:27:30.143Z,94.20
2018-01-06T18:29:59.674Z,94.40
2018-01-06T18:32:30.061Z,94.30
2018-01-06T18:34:59.727Z,94.40
2018-01-06T18:37:29.796Z,94.80
2018-01-06T18:39:59.028Z,94.70
2018-01-06T18:42:27.623Z,94.90
2018-01-06T18:44:56.672Z,94.80
2018-01-06T18:47:26.802Z,95.20
2018-01-06T18:49:56.784Z,94.90
2018-01-06T18:52:26.263Z,95.20
2018-01-06T18:54:56.142Z,95.20
2018-01-06T18:57:25.662Z,95.30
2018-01-06T19:02:24.486Z,95.20
2018-01-06T19:04:53.618Z,95.30
2018-01-06T19:07:22.672Z,95.40
2018-01-06T19:09:52.177Z,95.30
2018-01-06T19:12:21.962Z,95.30
2018-01-06T19:14:50.946Z,95.30
2018-01-06T19:17:20.009Z,95.30
2018-01-06T19:19:48.660Z,95.30
2018-01-06T19:22:18.558Z,95.30
2018-01-06T19:24:47.236Z,95.30
2018-01-06T19:27:16.367Z,95.40
2018-01-06T19:29:45.775Z,95.30
2018-01-06T19:32:14.428Z,95.30
2018-01-06T19:34:43.561Z,95.20
2018-01-06T19:37:13.043Z,95.20
2018-01-06T19:39:42.550Z,95.20
2018-01-06T19:42:12.295Z,95.40
2018-01-06T19:44:41.645Z,95.30
2018-01-06T19:47:10.802Z,95.40
2018-01-06T19:49:41.082Z,95.50
2018-01-06T19:54:49.306Z,95.40
2018-01-06T19:57:18.855Z,95.40
2018-01-06T19:59:47.900Z,95.40
2018-01-06T20:02:16.641Z,95.40
2018-01-06T20:04:45.517Z,95.40
2018-01-06T20:07:14.674Z,95.30
2018-01-06T20:09:44.293Z,95.30
2018-01-06T20:12:13.475Z,95.40
2018-01-06T20:14:42.575Z,95.50
2018-01-06T20:17:11.825Z,95.50
2018-01-06T20:19:41.361Z,95.60
2018-01-06T20:22:10.777Z,95.60
2018-01-06T20:27:10.716Z,95.50
2018-01-06T20:29:39.754Z,95.60
2018-01-06T20:32:09.573Z,95.70
2018-01-06T20:34:39.494Z,95.80
2018-01-06T20:37:08.915Z,95.70
2018-01-06T20:39:38.656Z,95.70
2018-01-06T20:42:08.857Z,95.70
2018-01-06T20:44:37.707Z,95.70
2018-01-06T20:47:07.214Z,95.80
2018-01-06T20:49:37.002Z,96.10
2018-01-06T20:52:05.977Z,95.90
2018-01-06T20:54:35.427Z,96.60
2018-01-06T20:57:04.722Z,96.00
2018-01-06T20:59:34.233Z,96.00
2018-01-06T21:02:03.836Z,96.00
2018-01-06T21:04:33.341Z,95.90
2018-01-06T21:07:02.018Z,95.90
2018-01-06T21:09:31.454Z,95.90
2018-01-06T21:12:00.172Z,95.90
2018-01-06T21:14:29.521Z,95.90
2018-01-06T21:16:58.823Z,95.80
2018-01-06T21:19:28.349Z,95.90
2018-01-06T21:21:57.422Z,96.00
2018-01-06T21:24:27.065Z,96.20
2018-01-06T21:26:56.023Z,96.40
2018-01-06T21:29:25.099Z,96.50
2018-01-06T21:31:54.830Z,96.30
2018-01-06T21:34:23.725Z,96.30
2018-01-06T21:36:52.352Z,96.30
2018-01-06T21:39:22.671Z,96.20
2018-01-06T21:41:52.341Z,96.60
2018-01-06T21:44:21.334Z,96.40
2018-01-06T21:46:50.849Z,96.60
2018-01-06T21:49:20.240Z,96.70
2018-01-06T21:51:49.336Z,96.90
2018-01-06T21:54:18.177Z,96.80
2018-01-06T21:56:47.021Z,97.20
2018-01-06T21:59:15.913Z,97.40
2018-01-06T22:01:44.596Z,97.40
2018-01-06T22:04:14.074Z,97.50
2018-01-06T22:06:43.609Z,97.60
2018-01-06T22:09:12.496Z,97.60
2018-01-06T22:11:43.402Z,97.60
2018-01-06T22:14:13.813Z,97.70
2018-01-06T22:16:44.090Z,97.70
2018-01-06T22:19:13.094Z,97.70
2018-01-06T22:21:41.768Z,97.70
2018-01-06T22:24:10.915Z,97.70
2018-01-06T22:26:41.293Z,97.80
2018-01-06T22:29:11.525Z,97.90
2018-01-06T22:31:41.166Z,97.90
2018-01-06T22:34:09.876Z,97.90
2018-01-06T22:36:40.320Z,97.90
2018-01-06T22:39:09.640Z,98.20
2018-01-06T22:41:38.524Z,98.00
2018-01-06T22:44:07.216Z,98.00
2018-01-06T22:46:35.838Z,98.00
2018-01-06T22:49:04.592Z,97.90
2018-01-06T22:51:34.374Z,98.20
2018-01-06T22:54:03.799Z,98.00
2018-01-06T22:56:33.343Z,98.00
2018-01-06T22:59:02.788Z,98.00
2018-01-06T23:01:32.783Z,98.10
2018-01-06T23:04:01.646Z,98.10
2018-01-06T23:06:30.345Z,98.10
2018-01-06T23:08:59.030Z,98.10
2018-01-06T23:11:27.806Z,98.40
2018-01-06T23:13:56.740Z,98.10
2018-01-06T23:16:25.574Z,98.10
2018-01-06T23:18:54.394Z,98.10
2018-01-06T23:21:23.134Z,98.00
2018-01-06T23:23:52.637Z,98.00
2018-01-06T23:26:21.353Z,98.00
2018-01-06T23:28:50.337Z,97.90
2018-01-06T23:31:19.431Z,97.90
2018-01-06T23:33:48.975Z,97.90
2018-01-06T23:36:17.732Z,97.90
2018-01-06T23:38:46.501Z,97.90
2018-01-06T23:41:15.567Z,98.00
2018-01-06T23:43:48.622Z,97.90
2018-01-06T23:46:17.325Z,97.80
2018-01-06T23:48:45.980Z,97.80
2018-01-06T23:51:14.776Z,97.80
2018-01-06T23:53:43.449Z,97.80
2018-01-06T23:56:12.073Z,97.70
2018-01-06T23:58:40.765Z,97.70
